DAL8384 KLAX-KLAS
Flight info
| Callsign | DAL8384 |
|---|---|
| Flight time | 1h 2m |
| Altitude | 25000 |
| Route | ORCKA5 MISEN RNDRZ4 |
| Aircraft | SF50/L-SDGRWY/L |
Departure
| Time | 2026-05-04 00:35 |
|---|---|
| Airport | Los Angeles International Airport (KLAX) |
Arrival
| Time | 2026-05-04 01:37 |
|---|---|
| Airport | Harry Reid International Airport (KLAS) |
| Time | Latitude | Longitude | Altitude | Speed | Heading |
|---|---|---|---|---|---|
| 2026-05-04 00:08 | 33.94626 | -118.40487 | 118 ft | 0 kts | 105° |
| 2026-05-04 00:27 | 33.94627 | -118.40490 | 119 ft | 2 kts | 105° |
| 2026-05-04 00:27 | 33.94631 | -118.40510 | 118 ft | 3 kts | 105° |
| 2026-05-04 00:28 | 33.94631 | -118.40527 | 118 ft | 2 kts | 23° |
| 2026-05-04 00:28 | 33.94629 | -118.40527 | 117 ft | 0 kts | 345° |
| 2026-05-04 00:28 | 33.94636 | -118.40531 | 118 ft | 7 kts | 331° |
| 2026-05-04 00:29 | 33.94717 | -118.40551 | 119 ft | 12 kts | 353° |
| 2026-05-04 00:29 | 33.94730 | -118.40553 | 119 ft | 0 kts | 353° |
| 2026-05-04 00:30 | 33.94733 | -118.40554 | 119 ft | 3 kts | 353° |
| 2026-05-04 00:30 | 33.94808 | -118.40594 | 117 ft | 18 kts | 343° |
| 2026-05-04 00:30 | 33.94868 | -118.40560 | 119 ft | 9 kts | 78° |
| 2026-05-04 00:30 | 33.94878 | -118.40474 | 118 ft | 15 kts | 84° |
| 2026-05-04 00:31 | 33.94891 | -118.40342 | 117 ft | 15 kts | 82° |
| 2026-05-04 00:31 | 33.94902 | -118.40235 | 119 ft | 12 kts | 83° |
| 2026-05-04 00:31 | 33.94911 | -118.40148 | 119 ft | 10 kts | 84° |
| 2026-05-04 00:31 | 33.94921 | -118.40048 | 118 ft | 11 kts | 82° |
| 2026-05-04 00:32 | 33.94934 | -118.39950 | 117 ft | 13 kts | 68° |
| 2026-05-04 00:32 | 33.94957 | -118.39920 | 119 ft | 0 kts | 22° |
| 2026-05-04 00:33 | 33.94970 | -118.39914 | 118 ft | 7 kts | 18° |
| 2026-05-04 00:34 | 33.95039 | -118.39950 | 119 ft | 13 kts | 280° |
| 2026-05-04 00:34 | 33.95030 | -118.40069 | 119 ft | 16 kts | 262° |
| 2026-05-04 00:34 | 33.95002 | -118.40348 | 119 ft | 69 kts | 263° |
| 2026-05-04 00:34 | 33.94919 | -118.41125 | 265 ft | 95 kts | 262° |
| 2026-05-04 00:35 | 33.94852 | -118.41924 | 379 ft | 93 kts | 261° |
| 2026-05-04 00:35 | 33.94782 | -118.42788 | 565 ft | 119 kts | 260° |
| 2026-05-04 00:35 | 33.94724 | -118.43878 | 808 ft | 141 kts | 265° |
| 2026-05-04 00:35 | 33.94689 | -118.45128 | 1193 ft | 154 kts | 266° |
| 2026-05-04 00:36 | 33.94638 | -118.46430 | 1698 ft | 156 kts | 265° |
| 2026-05-04 00:36 | 33.94610 | -118.47718 | 2256 ft | 153 kts | 267° |
| 2026-05-04 00:36 | 33.94552 | -118.49020 | 2696 ft | 159 kts | 265° |
| 2026-05-04 00:36 | 33.94489 | -118.50368 | 3152 ft | 162 kts | 266° |
| 2026-05-04 00:37 | 33.94428 | -118.51696 | 3680 ft | 159 kts | 266° |
| 2026-05-04 00:37 | 33.94376 | -118.53046 | 4097 ft | 162 kts | 266° |
| 2026-05-04 00:37 | 33.94314 | -118.54423 | 4461 ft | 168 kts | 266° |
| 2026-05-04 00:37 | 33.94242 | -118.55824 | 4910 ft | 168 kts | 266° |
| 2026-05-04 00:38 | 33.94171 | -118.57296 | 5004 ft | 186 kts | 265° |
| 2026-05-04 00:38 | 33.94080 | -118.58887 | 5008 ft | 199 kts | 261° |
| 2026-05-04 00:38 | 33.93383 | -118.60271 | 5399 ft | 192 kts | 217° |
| 2026-05-04 00:38 | 33.92167 | -118.60633 | 6138 ft | 177 kts | 184° |
| 2026-05-04 00:39 | 33.90972 | -118.60230 | 6473 ft | 188 kts | 149° |
| 2026-05-04 00:39 | 33.90125 | -118.59028 | 6815 ft | 193 kts | 116° |
| 2026-05-04 00:39 | 33.89992 | -118.57423 | 7150 ft | 198 kts | 81° |
| 2026-05-04 00:39 | 33.90367 | -118.55808 | 7459 ft | 201 kts | 73° |
| 2026-05-04 00:40 | 33.90749 | -118.54185 | 7809 ft | 201 kts | 77° |
| 2026-05-04 00:40 | 33.91087 | -118.52543 | 8133 ft | 203 kts | 78° |
| 2026-05-04 00:40 | 33.91433 | -118.50894 | 8478 ft | 204 kts | 77° |
| 2026-05-04 00:40 | 33.91777 | -118.49239 | 8825 ft | 203 kts | 81° |
| 2026-05-04 00:41 | 33.91736 | -118.47567 | 9131 ft | 200 kts | 103° |
| 2026-05-04 00:41 | 33.91503 | -118.45916 | 9468 ft | 201 kts | 104° |
| 2026-05-04 00:41 | 33.91286 | -118.44248 | 9809 ft | 202 kts | 103° |
| 2026-05-04 00:41 | 33.91076 | -118.42575 | 10123 ft | 203 kts | 103° |
| 2026-05-04 00:42 | 33.90870 | -118.40890 | 10425 ft | 204 kts | 103° |
| 2026-05-04 00:42 | 33.90666 | -118.39194 | 10726 ft | 205 kts | 103° |
| 2026-05-04 00:42 | 33.90464 | -118.37487 | 11020 ft | 207 kts | 103° |
| 2026-05-04 00:42 | 33.90266 | -118.35769 | 11311 ft | 208 kts | 103° |
| 2026-05-04 00:43 | 33.90076 | -118.34038 | 11600 ft | 209 kts | 103° |
| 2026-05-04 00:43 | 33.89890 | -118.32332 | 11876 ft | 210 kts | 103° |
| 2026-05-04 00:43 | 33.89702 | -118.30591 | 12165 ft | 210 kts | 103° |
| 2026-05-04 00:43 | 33.89515 | -118.28835 | 12430 ft | 212 kts | 103° |
| 2026-05-04 00:44 | 33.89331 | -118.27072 | 12712 ft | 213 kts | 103° |
| 2026-05-04 00:44 | 33.89150 | -118.25295 | 12975 ft | 215 kts | 103° |
| 2026-05-04 00:44 | 33.88964 | -118.23462 | 13000 ft | 227 kts | 103° |
| 2026-05-04 00:44 | 33.88788 | -118.21537 | 12986 ft | 237 kts | 96° |
| 2026-05-04 00:45 | 33.89095 | -118.19538 | 12986 ft | 248 kts | 78° |
| 2026-05-04 00:45 | 33.89489 | -118.17502 | 12990 ft | 250 kts | 86° |
| 2026-05-04 00:45 | 33.89597 | -118.15413 | 12992 ft | 251 kts | 95° |
| 2026-05-04 00:45 | 33.89603 | -118.13305 | 12991 ft | 254 kts | 94° |
| 2026-05-04 00:46 | 33.89678 | -118.11176 | 13060 ft | 252 kts | 91° |
| 2026-05-04 00:46 | 33.89781 | -118.09173 | 13710 ft | 227 kts | 92° |
| 2026-05-04 00:46 | 33.89853 | -118.07316 | 14056 ft | 222 kts | 94° |
| 2026-05-04 00:46 | 33.89913 | -118.05457 | 14215 ft | 227 kts | 93° |
| 2026-05-04 00:47 | 33.89987 | -118.03549 | 14419 ft | 230 kts | 93° |
| 2026-05-04 00:47 | 33.90062 | -118.01620 | 14621 ft | 232 kts | 93° |
| 2026-05-04 00:47 | 33.90135 | -117.99672 | 14815 ft | 234 kts | 93° |
| 2026-05-04 00:47 | 33.90210 | -117.97706 | 14999 ft | 236 kts | 93° |
| 2026-05-04 00:48 | 33.90284 | -117.95720 | 15186 ft | 238 kts | 93° |
| 2026-05-04 00:48 | 33.90360 | -117.93725 | 15358 ft | 240 kts | 93° |
| 2026-05-04 00:48 | 33.90434 | -117.91711 | 15530 ft | 242 kts | 93° |
| 2026-05-04 00:48 | 33.90510 | -117.89682 | 15703 ft | 243 kts | 93° |
| 2026-05-04 00:49 | 33.90584 | -117.87639 | 15870 ft | 245 kts | 93° |
| 2026-05-04 00:49 | 33.90661 | -117.85579 | 16034 ft | 247 kts | 93° |
| 2026-05-04 00:49 | 33.90737 | -117.83507 | 16199 ft | 249 kts | 93° |
| 2026-05-04 00:49 | 33.90812 | -117.81416 | 16347 ft | 251 kts | 93° |
| 2026-05-04 00:50 | 33.90889 | -117.79302 | 16488 ft | 254 kts | 93° |
| 2026-05-04 00:50 | 33.90968 | -117.77201 | 16636 ft | 256 kts | 93° |
| 2026-05-04 00:50 | 33.91043 | -117.75055 | 16787 ft | 257 kts | 93° |
| 2026-05-04 00:50 | 33.91117 | -117.72894 | 16921 ft | 260 kts | 93° |
| 2026-05-04 00:51 | 33.91194 | -117.70716 | 17091 ft | 258 kts | 93° |
| 2026-05-04 00:51 | 33.91275 | -117.68577 | 17325 ft | 256 kts | 93° |
| 2026-05-04 00:51 | 33.91350 | -117.66420 | 17455 ft | 259 kts | 93° |
| 2026-05-04 00:51 | 33.91423 | -117.64260 | 17595 ft | 259 kts | 93° |
| 2026-05-04 00:52 | 33.91499 | -117.62088 | 17727 ft | 261 kts | 93° |
| 2026-05-04 00:52 | 33.91575 | -117.59895 | 17887 ft | 263 kts | 93° |
| 2026-05-04 00:52 | 33.91651 | -117.57692 | 18066 ft | 264 kts | 93° |
| 2026-05-04 00:52 | 33.91727 | -117.55470 | 18231 ft | 267 kts | 93° |
| 2026-05-04 00:53 | 33.91803 | -117.53233 | 18382 ft | 268 kts | 93° |
| 2026-05-04 00:53 | 33.91881 | -117.51014 | 18482 ft | 269 kts | 92° |
| 2026-05-04 00:53 | 33.92252 | -117.48792 | 18589 ft | 275 kts | 69° |
| 2026-05-04 00:53 | 33.93239 | -117.46846 | 18738 ft | 271 kts | 45° |
| 2026-05-04 00:54 | 33.94576 | -117.45273 | 18917 ft | 265 kts | 37° |
| 2026-05-04 00:54 | 33.95898 | -117.43771 | 19185 ft | 261 kts | 37° |
| 2026-05-04 00:54 | 33.97213 | -117.42259 | 19304 ft | 264 kts | 37° |
| 2026-05-04 00:54 | 33.98563 | -117.40713 | 19310 ft | 271 kts | 37° |
| 2026-05-04 00:55 | 33.99944 | -117.39128 | 19317 ft | 277 kts | 38° |
| 2026-05-04 00:55 | 34.01351 | -117.37508 | 19347 ft | 281 kts | 38° |
| 2026-05-04 00:55 | 34.02760 | -117.35889 | 19483 ft | 278 kts | 38° |
| 2026-05-04 00:55 | 34.04160 | -117.34281 | 19588 ft | 278 kts | 38° |
| 2026-05-04 00:56 | 34.05099 | -117.33224 | 19617 ft | 279 kts | 37° |
| 2026-05-04 00:56 | 34.06501 | -117.31609 | 19735 ft | 279 kts | 38° |
| 2026-05-04 00:56 | 34.08347 | -117.29453 | 19846 ft | 279 kts | 38° |
| 2026-05-04 00:56 | 34.09753 | -117.27841 | 19928 ft | 279 kts | 37° |
| 2026-05-04 00:57 | 34.11160 | -117.26226 | 19987 ft | 279 kts | 38° |
| 2026-05-04 00:57 | 34.12561 | -117.24608 | 20079 ft | 279 kts | 38° |
| 2026-05-04 00:57 | 34.13482 | -117.23544 | 20253 ft | 274 kts | 37° |
| 2026-05-04 00:57 | 34.14862 | -117.21952 | 20629 ft | 273 kts | 37° |
| 2026-05-04 00:58 | 34.16223 | -117.20379 | 21115 ft | 269 kts | 37° |
| 2026-05-04 00:58 | 34.17544 | -117.18830 | 21593 ft | 259 kts | 36° |
| 2026-05-04 00:58 | 34.18832 | -117.17335 | 22142 ft | 254 kts | 36° |
| 2026-05-04 00:58 | 34.20084 | -117.15854 | 22676 ft | 250 kts | 36° |
| 2026-05-04 00:59 | 34.21299 | -117.14364 | 23187 ft | 248 kts | 38° |
| 2026-05-04 00:59 | 34.22469 | -117.12860 | 23667 ft | 244 kts | 38° |
| 2026-05-04 00:59 | 34.23602 | -117.11364 | 24093 ft | 237 kts | 39° |
| 2026-05-04 00:59 | 34.24658 | -117.09864 | 24443 ft | 236 kts | 42° |
| 2026-05-04 01:00 | 34.25686 | -117.08330 | 24743 ft | 239 kts | 43° |
| 2026-05-04 01:00 | 34.26770 | -117.06741 | 24891 ft | 255 kts | 42° |
| 2026-05-04 01:00 | 34.27942 | -117.05017 | 24886 ft | 276 kts | 44° |
| 2026-05-04 01:00 | 34.29187 | -117.03147 | 24884 ft | 294 kts | 45° |
| 2026-05-04 01:01 | 34.30492 | -117.01155 | 24879 ft | 309 kts | 46° |
| 2026-05-04 01:01 | 34.31837 | -116.99063 | 24851 ft | 320 kts | 46° |
| 2026-05-04 01:01 | 34.33200 | -116.96899 | 24843 ft | 327 kts | 47° |
| 2026-05-04 01:01 | 34.34583 | -116.94709 | 24841 ft | 329 kts | 47° |
| 2026-05-04 01:02 | 34.35980 | -116.92491 | 24851 ft | 335 kts | 47° |
| 2026-05-04 01:02 | 34.37386 | -116.90213 | 24851 ft | 340 kts | 49° |
| 2026-05-04 01:02 | 34.38792 | -116.87885 | 24849 ft | 344 kts | 49° |
| 2026-05-04 01:02 | 34.40195 | -116.85517 | 24818 ft | 348 kts | 50° |
| 2026-05-04 01:03 | 34.41594 | -116.83108 | 24817 ft | 352 kts | 51° |
| 2026-05-04 01:03 | 34.42989 | -116.80657 | 24803 ft | 355 kts | 52° |
| 2026-05-04 01:03 | 34.44382 | -116.78160 | 24801 ft | 359 kts | 52° |
| 2026-05-04 01:03 | 34.45753 | -116.75656 | 24802 ft | 364 kts | 53° |
| 2026-05-04 01:04 | 34.47141 | -116.73075 | 24771 ft | 367 kts | 53° |
| 2026-05-04 01:04 | 34.48523 | -116.70455 | 24771 ft | 370 kts | 54° |
| 2026-05-04 01:04 | 34.49902 | -116.67819 | 24764 ft | 370 kts | 54° |
| 2026-05-04 01:04 | 34.51449 | -116.65364 | 24754 ft | 364 kts | 39° |
| 2026-05-04 01:05 | 34.53426 | -116.63527 | 24754 ft | 352 kts | 20° |
| 2026-05-04 01:05 | 34.55635 | -116.62391 | 24751 ft | 341 kts | 7° |
| 2026-05-04 01:05 | 34.57885 | -116.61481 | 24751 ft | 343 kts | 8° |
| 2026-05-04 01:05 | 34.60094 | -116.60298 | 24748 ft | 353 kts | 19° |
| 2026-05-04 01:06 | 34.62206 | -116.58724 | 24752 ft | 359 kts | 24° |
| 2026-05-04 01:06 | 34.64289 | -116.57050 | 24751 ft | 358 kts | 24° |
| 2026-05-04 01:06 | 34.66397 | -116.55550 | 24755 ft | 354 kts | 19° |
| 2026-05-04 01:06 | 34.68565 | -116.54139 | 24773 ft | 354 kts | 18° |
| 2026-05-04 01:07 | 34.70721 | -116.52651 | 24765 ft | 358 kts | 21° |
| 2026-05-04 01:07 | 34.72859 | -116.51094 | 24765 ft | 358 kts | 21° |
| 2026-05-04 01:07 | 34.75005 | -116.49563 | 24765 ft | 357 kts | 20° |
| 2026-05-04 01:07 | 34.77165 | -116.48071 | 24765 ft | 357 kts | 20° |
| 2026-05-04 01:08 | 34.79287 | -116.46483 | 24758 ft | 363 kts | 28° |
| 2026-05-04 01:08 | 34.81174 | -116.44388 | 24750 ft | 371 kts | 41° |
| 2026-05-04 01:08 | 34.82927 | -116.42070 | 24749 ft | 372 kts | 41° |
| 2026-05-04 01:08 | 34.84692 | -116.39763 | 24747 ft | 373 kts | 41° |
| 2026-05-04 01:09 | 34.86442 | -116.37495 | 24742 ft | 373 kts | 41° |
| 2026-05-04 01:09 | 34.88216 | -116.35179 | 24738 ft | 374 kts | 43° |
| 2026-05-04 01:09 | 34.89985 | -116.32862 | 24739 ft | 374 kts | 41° |
| 2026-05-04 01:09 | 34.91758 | -116.30540 | 24740 ft | 374 kts | 41° |
| 2026-05-04 01:10 | 34.93534 | -116.28214 | 24734 ft | 375 kts | 41° |
| 2026-05-04 01:10 | 34.95309 | -116.25889 | 24732 ft | 374 kts | 41° |
| 2026-05-04 01:10 | 34.97075 | -116.23568 | 24728 ft | 373 kts | 41° |
| 2026-05-04 01:10 | 34.98842 | -116.21250 | 24743 ft | 373 kts | 41° |
| 2026-05-04 01:11 | 35.00611 | -116.18928 | 24746 ft | 374 kts | 41° |
| 2026-05-04 01:11 | 35.02381 | -116.16604 | 24745 ft | 374 kts | 41° |
| 2026-05-04 01:11 | 35.04148 | -116.14271 | 24743 ft | 374 kts | 41° |
| 2026-05-04 01:11 | 35.05917 | -116.11945 | 24742 ft | 374 kts | 41° |
| 2026-05-04 01:12 | 35.07667 | -116.09652 | 24744 ft | 374 kts | 41° |
| 2026-05-04 01:12 | 35.09435 | -116.07320 | 24744 ft | 374 kts | 41° |
| 2026-05-04 01:12 | 35.11203 | -116.04981 | 24744 ft | 375 kts | 41° |
| 2026-05-04 01:12 | 35.12972 | -116.02649 | 24744 ft | 375 kts | 41° |
| 2026-05-04 01:13 | 35.14744 | -116.00317 | 24747 ft | 375 kts | 41° |
| 2026-05-04 01:13 | 35.16501 | -115.97994 | 24260 ft | 369 kts | 42° |
| 2026-05-04 01:13 | 35.18209 | -115.95723 | 23693 ft | 360 kts | 42° |
| 2026-05-04 01:13 | 35.19939 | -115.93445 | 23083 ft | 374 kts | 42° |
| 2026-05-04 01:14 | 35.21731 | -115.91089 | 22435 ft | 380 kts | 43° |
| 2026-05-04 01:14 | 35.23504 | -115.88724 | 21797 ft | 374 kts | 44° |
| 2026-05-04 01:14 | 35.25247 | -115.86403 | 21170 ft | 368 kts | 44° |
| 2026-05-04 01:14 | 35.26952 | -115.84150 | 20555 ft | 363 kts | 45° |
| 2026-05-04 01:15 | 35.28663 | -115.81885 | 19948 ft | 361 kts | 46° |
| 2026-05-04 01:15 | 35.30356 | -115.79631 | 19353 ft | 358 kts | 46° |
| 2026-05-04 01:15 | 35.32031 | -115.77403 | 18752 ft | 350 kts | 47° |
| 2026-05-04 01:15 | 35.33651 | -115.75256 | 18138 ft | 338 kts | 47° |
| 2026-05-04 01:16 | 35.35249 | -115.73141 | 17434 ft | 341 kts | 48° |
| 2026-05-04 01:16 | 35.36858 | -115.70998 | 16736 ft | 343 kts | 49° |
| 2026-05-04 01:16 | 35.38467 | -115.68849 | 16059 ft | 338 kts | 49° |
| 2026-05-04 01:16 | 35.40040 | -115.66745 | 15382 ft | 334 kts | 50° |
| 2026-05-04 01:17 | 35.41602 | -115.64657 | 14729 ft | 330 kts | 50° |
| 2026-05-04 01:17 | 35.43149 | -115.62589 | 14073 ft | 329 kts | 49° |
| 2026-05-04 01:17 | 35.44683 | -115.60541 | 13428 ft | 324 kts | 49° |
| 2026-05-04 01:17 | 35.46198 | -115.58518 | 12732 ft | 319 kts | 49° |
| 2026-05-04 01:18 | 35.47662 | -115.56548 | 12049 ft | 316 kts | 50° |
| 2026-05-04 01:18 | 35.49154 | -115.54544 | 11380 ft | 318 kts | 49° |
| 2026-05-04 01:18 | 35.50650 | -115.52554 | 10999 ft | 312 kts | 49° |
| 2026-05-04 01:18 | 35.52114 | -115.50599 | 10993 ft | 311 kts | 49° |
| 2026-05-04 01:19 | 35.53567 | -115.48648 | 10992 ft | 308 kts | 49° |
| 2026-05-04 01:19 | 35.55006 | -115.46714 | 10990 ft | 306 kts | 50° |
| 2026-05-04 01:19 | 35.56440 | -115.44789 | 10991 ft | 304 kts | 49° |
| 2026-05-04 01:19 | 35.57863 | -115.42877 | 10985 ft | 303 kts | 50° |
| 2026-05-04 01:20 | 35.59285 | -115.40965 | 10990 ft | 302 kts | 50° |
| 2026-05-04 01:20 | 35.60701 | -115.39060 | 10982 ft | 302 kts | 49° |
| 2026-05-04 01:20 | 35.62121 | -115.37151 | 10820 ft | 307 kts | 49° |
| 2026-05-04 01:20 | 35.63579 | -115.35189 | 10345 ft | 313 kts | 50° |
| 2026-05-04 01:21 | 35.65027 | -115.33239 | 9880 ft | 313 kts | 50° |
| 2026-05-04 01:21 | 35.66498 | -115.31258 | 9381 ft | 313 kts | 49° |
| 2026-05-04 01:21 | 35.67948 | -115.29301 | 8998 ft | 307 kts | 50° |
| 2026-05-04 01:21 | 35.69366 | -115.27351 | 8981 ft | 303 kts | 50° |
| 2026-05-04 01:22 | 35.70777 | -115.25452 | 8968 ft | 299 kts | 49° |
| 2026-05-04 01:22 | 35.72191 | -115.23587 | 8965 ft | 297 kts | 49° |
| 2026-05-04 01:22 | 35.73577 | -115.21715 | 8968 ft | 295 kts | 50° |
| 2026-05-04 01:22 | 35.74950 | -115.19841 | 8965 ft | 294 kts | 50° |
| 2026-05-04 01:23 | 35.76328 | -115.17974 | 8967 ft | 295 kts | 50° |
| 2026-05-04 01:23 | 35.77701 | -115.16112 | 8969 ft | 293 kts | 50° |
| 2026-05-04 01:23 | 35.79130 | -115.14316 | 8961 ft | 293 kts | 44° |
| 2026-05-04 01:23 | 35.80677 | -115.12680 | 8948 ft | 293 kts | 41° |
| 2026-05-04 01:24 | 35.82247 | -115.11070 | 8846 ft | 296 kts | 41° |
| 2026-05-04 01:24 | 35.83850 | -115.09434 | 8305 ft | 306 kts | 41° |
| 2026-05-04 01:24 | 35.85480 | -115.07764 | 7771 ft | 303 kts | 41° |
| 2026-05-04 01:24 | 35.87110 | -115.06099 | 7300 ft | 305 kts | 41° |
| 2026-05-04 01:25 | 35.88745 | -115.04438 | 7029 ft | 298 kts | 41° |
| 2026-05-04 01:25 | 35.90315 | -115.02808 | 7026 ft | 293 kts | 41° |
| 2026-05-04 01:25 | 35.91762 | -115.01259 | 7022 ft | 255 kts | 43° |
| 2026-05-04 01:25 | 35.93063 | -114.99915 | 6976 ft | 236 kts | 41° |
| 2026-05-04 01:26 | 35.94332 | -114.98661 | 6768 ft | 237 kts | 42° |
| 2026-05-04 01:26 | 35.95659 | -114.97376 | 6442 ft | 245 kts | 40° |
| 2026-05-04 01:26 | 35.96999 | -114.96098 | 6277 ft | 237 kts | 40° |
| 2026-05-04 01:26 | 35.98272 | -114.94883 | 6283 ft | 227 kts | 41° |
| 2026-05-04 01:27 | 35.99508 | -114.93722 | 6280 ft | 220 kts | 40° |
| 2026-05-04 01:27 | 36.00711 | -114.92591 | 6276 ft | 215 kts | 40° |
| 2026-05-04 01:27 | 36.01594 | -114.91186 | 6136 ft | 209 kts | 78° |
| 2026-05-04 01:27 | 36.01859 | -114.89416 | 5716 ft | 217 kts | 92° |
| 2026-05-04 01:28 | 36.02036 | -114.87543 | 5487 ft | 217 kts | 91° |
| 2026-05-04 01:28 | 36.02214 | -114.85729 | 5490 ft | 210 kts | 91° |
| 2026-05-04 01:28 | 36.02412 | -114.84004 | 5488 ft | 199 kts | 91° |
| 2026-05-04 01:28 | 36.02778 | -114.82333 | 5490 ft | 213 kts | 68° |
| 2026-05-04 01:29 | 36.03928 | -114.81094 | 5467 ft | 223 kts | 36° |
| 2026-05-04 01:29 | 36.05205 | -114.80034 | 5469 ft | 220 kts | 38° |
| 2026-05-04 01:29 | 36.06468 | -114.78965 | 5466 ft | 220 kts | 38° |
| 2026-05-04 01:29 | 36.07732 | -114.77917 | 5454 ft | 218 kts | 33° |
| 2026-05-04 01:30 | 36.09199 | -114.77561 | 5445 ft | 218 kts | 348° |
| 2026-05-04 01:30 | 36.10441 | -114.78429 | 5444 ft | 204 kts | 302° |
| 2026-05-04 01:30 | 36.10830 | -114.79983 | 5445 ft | 180 kts | 255° |
| 2026-05-04 01:30 | 36.10224 | -114.81171 | 5452 ft | 164 kts | 210° |
| 2026-05-04 01:31 | 36.09370 | -114.82065 | 5459 ft | 168 kts | 233° |
| 2026-05-04 01:31 | 36.08906 | -114.83409 | 5465 ft | 170 kts | 240° |
| 2026-05-04 01:31 | 36.08485 | -114.84798 | 5277 ft | 182 kts | 241° |
| 2026-05-04 01:31 | 36.08015 | -114.86306 | 4979 ft | 188 kts | 242° |
| 2026-05-04 01:32 | 36.07595 | -114.87781 | 4964 ft | 177 kts | 245° |
| 2026-05-04 01:32 | 36.07423 | -114.89271 | 4845 ft | 174 kts | 260° |
| 2026-05-04 01:32 | 36.07388 | -114.90750 | 4761 ft | 171 kts | 259° |
| 2026-05-04 01:32 | 36.07364 | -114.92215 | 4595 ft | 168 kts | 260° |
| 2026-05-04 01:33 | 36.07372 | -114.93600 | 4518 ft | 156 kts | 259° |
| 2026-05-04 01:33 | 36.07358 | -114.94920 | 4450 ft | 152 kts | 259° |
| 2026-05-04 01:33 | 36.07368 | -114.96194 | 4362 ft | 148 kts | 260° |
| 2026-05-04 01:33 | 36.07360 | -114.97450 | 4255 ft | 146 kts | 259° |
| 2026-05-04 01:34 | 36.07354 | -114.98766 | 3906 ft | 157 kts | 261° |
| 2026-05-04 01:34 | 36.07372 | -115.00069 | 3788 ft | 145 kts | 259° |
| 2026-05-04 01:34 | 36.07363 | -115.01274 | 3788 ft | 141 kts | 261° |
| 2026-05-04 01:34 | 36.07364 | -115.02483 | 3655 ft | 134 kts | 262° |
| 2026-05-04 01:35 | 36.07367 | -115.03622 | 3486 ft | 132 kts | 261° |
| 2026-05-04 01:35 | 36.07358 | -115.04745 | 3322 ft | 129 kts | 262° |
| 2026-05-04 01:35 | 36.07368 | -115.05870 | 3173 ft | 133 kts | 263° |
| 2026-05-04 01:35 | 36.07353 | -115.07031 | 2998 ft | 136 kts | 263° |
| 2026-05-04 01:36 | 36.07349 | -115.08168 | 2822 ft | 128 kts | 260° |
| 2026-05-04 01:36 | 36.07436 | -115.09208 | 2727 ft | 112 kts | 254° |
| 2026-05-04 01:36 | 36.07454 | -115.10087 | 2578 ft | 93 kts | 242° |
| 2026-05-04 01:36 | 36.07445 | -115.10892 | 2455 ft | 101 kts | 237° |
| 2026-05-04 01:37 | 36.07375 | -115.11765 | 2377 ft | 103 kts | 257° |
| 2026-05-04 01:37 | 36.07382 | -115.12662 | 2188 ft | 102 kts | 243° |
| 2026-05-04 01:37 | 36.07381 | -115.13386 | 2115 ft | 68 kts | 244° |
| 2026-05-04 01:37 | 36.07362 | -115.13765 | 2114 ft | 32 kts | 274° |
| 2026-05-04 01:38 | 36.07367 | -115.14021 | 2118 ft | 37 kts | 270° |
| 2026-05-04 01:38 | 36.07365 | -115.14340 | 2122 ft | 34 kts | 267° |
| 2026-05-04 01:38 | 36.07366 | -115.14619 | 2119 ft | 28 kts | 269° |
| 2026-05-04 01:38 | 36.07384 | -115.14815 | 2119 ft | 21 kts | 286° |
| 2026-05-04 01:39 | 36.07437 | -115.14977 | 2116 ft | 20 kts | 300° |
| 2026-05-04 01:39 | 36.07522 | -115.15120 | 2116 ft | 20 kts | 321° |
| 2026-05-04 01:39 | 36.07634 | -115.15192 | 2120 ft | 17 kts | 336° |
| 2026-05-04 01:39 | 36.07736 | -115.15251 | 2120 ft | 16 kts | 337° |
| 2026-05-04 01:40 | 36.07803 | -115.15220 | 2120 ft | 11 kts | 91° |
| 2026-05-04 01:40 | 36.07808 | -115.15100 | 2119 ft | 18 kts | 45° |
| 2026-05-04 01:40 | 36.07925 | -115.15111 | 2120 ft | 9 kts | 6° |
| 2026-05-04 01:40 | 36.07982 | -115.15078 | 2119 ft | 16 kts | 34° |
| 2026-05-04 01:41 | 36.08050 | -115.14963 | 2115 ft | 12 kts | 57° |
| 2026-05-04 01:41 | 36.08098 | -115.14865 | 2112 ft | 13 kts | 55° |
| 2026-05-04 01:41 | 36.08136 | -115.14788 | 2110 ft | 5 kts | 60° |
| 2026-05-04 01:41 | 36.08137 | -115.14787 | 2110 ft | 0 kts | 60° |